Leonardo Vázquez

Scout - Gimnasia La Plata
23 Apr 2028
Sonntag
Verarbeitung

Persönlichkeit

Anpassungsfähigkeit (20) Ehrgeiz (17) Kontroverse (18) Loyalität (18) Druck (14) Professionalität (2) Fairness (8) Temperament (3)

Profil

Trainerstil Demokratisch
Lizenz Kontinentale Pro
Entschlossenheit 12
Menschenführung 11
Motivation 11
Disziplin 7
Arbeitszufriedenheit
43%
Ermüdung
0%
Rolle Scout
Gehalt 18.7K p/W
Vertrag 14.03.2029

Leistung

Verhalten Gut
Trainingseffektivität
19%
Spielerentwicklung
65%
Verletzungsprävention
25%
Taktische Umsetzung
65%

Letzte Ereignisse

Spieler begutachtet jetzt
Nahm an einer Scouting-Besprechung teil jetzt
Nahm an einer Scouting-Besprechung teil jetzt
Nahm an einer Scouting-Besprechung teil jetzt
Nahm an einer Scouting-Besprechung teil jetzt
Nahm an einer Scouting-Besprechung teil 7T her
Nahm an einer Scouting-Besprechung teil 7T her
Spieler begutachtet 7T her

Aktuell beobachtet

105
Spieler Verein Status Fähigkeit Vertrauen Beobachtet Zuletzt beobachtet Letzte Stimme
Andrey Ivlev Nizhniy Novgorod Aktiv 114 / 133 40% 3 18.04.2028 -
Augusto Bando Ascoli Aktiv 112 / 126 40% 1 18.04.2028 -
Musa Danjuma Umraniyespor Aktiv 103 / 101 40% 1 18.04.2028 -
Salvador Blopá Sporting CP Aktiv 133 / 121 40% 3 17.04.2028 -
Adnan Nainggolan KV Oostende Aktiv 114 / 124 40% 3 17.04.2028 -
Itumeleng Jali Spezia Aktiv 114 / 114 40% 2 17.04.2028 -
Gustavo Albarracín Alavés Aktiv 117 / 128 40% 4 16.04.2028 -
Trey Nyoni Rotherham United Aktiv 143 / 142 40% 3 16.04.2028 -
Josh Nichols Oldham Athletic Aktiv 124 / 138 40% 4 16.04.2028 -
Christos Mouzakitis Hull City Aktiv 141 / 151 40% 3 06.04.2028 -
Josh Acheampong Everton Aktiv 142 / 154 40% 2 06.04.2028 -
Giovanni Leoni Lincoln City Aktiv 135 / 156 40% 1 05.04.2028 -
Abubakar Adams Aduana Stars Aktiv 82 / 87 40% 1 05.04.2028 -
Victor Hernandez Santa Fe Aktiv 122 / 115 40% 1 05.04.2028 -
Olivier Leroux Mouscron Aktiv 109 / 101 40% 5 31.03.2028 -
Simone Kosijer Triestina Aktiv 99 / 98 40% 1 31.03.2028 -
Riquelme Thompson-Jones Accrington Stanley Aktiv 109 / 120 40% 1 31.03.2028 -
Jorthy Mokio ADO Den Haag Aktiv 140 / 149 40% 3 30.03.2028 -
Miguel Figueiredo Benfica Aktiv 107 / 122 40% 1 30.03.2028 -
Honest Ahanor Atalanta Aktiv 129 / 137 40% 2 24.03.2028 -
Nicolas Sport Recife Aktiv 111 / 106 40% 2 23.03.2028 -
Tyler Fletcher Rotherham United Aktiv 113 / 108 40% 2 23.03.2028 -
Matvey Bardachev Zenit Aktiv 108 / 102 40% 1 23.03.2028 -
Chris Rigg Sunderland Aktiv 140 / 151 40% 2 22.03.2028 -
Bernardo Lima Porto Aktiv 107 / 121 40% 2 22.03.2028 -
Jan Bürger Northampton Town Aktiv 118 / 117 40% 5 21.03.2028 -
Vinícius Lira São Paulo Aktiv 114 / 117 40% 1 21.03.2028 -
Ayden Heaven Portsmouth Aktiv 153 / 157 40% 2 20.03.2028 -
Martim Cunha Porto Aktiv 109 / 104 40% 2 17.03.2028 -
Josh King Newcastle United Aktiv 135 / 156 40% 3 15.03.2028 -
Nathan De Cat SC Freiburg Aktiv 134 / 126 40% 1 14.03.2028 -
Daniel Banjaqui Benfica Aktiv 112 / 130 40% 1 14.03.2028 -
Dmitry Pestryakov Krasnodar Aktiv 125 / 138 40% 2 13.03.2028 -
Finn Jeltsch VfB Stuttgart Aktiv 129 / 137 40% 2 13.03.2028 -
Dennis Cirkin Queens Park Rangers Aktiv 138 / 116 40% 1 30.11.2026 -
Joe Gelhardt Hull City Aktiv 144 / 116 40% 1 28.11.2026 -
Patrick Agyemang Derby County Aktiv 137 / 110 40% 1 28.11.2026 Mehr Infos nötig
Alejo Cruz Juventud Aktiv 130 / 124 40% 5 26.11.2026 Beobachten
Sota Kitano Red Bull Salzburg Aktiv 128 / 108 40% 2 26.11.2026 -
Tomáš Rigo Stoke City Aktiv 116 / 128 40% 1 26.11.2026 -
Manuel Pagano Imotski Aktiv 84 / 101 40% 1 24.11.2026 -
Ivo Mammini Beitar Jerusalem Aktiv 118 / 105 40% 2 23.11.2026 -
Matías Contrera Hrvatski Dragovoljac Aktiv 102 / 111 40% 1 22.11.2026 -
Talles Magno New York City Aktiv 113 / 143 40% 1 18.11.2026 -
Martín Ojeda Orlando City Aktiv 146 / 133 40% 3 14.11.2026 -
Themba Williams Ajax Cape Town Aktiv 120 / 122 40% 1 12.11.2026 -
Lorenzo Colombo Genoa Aktiv 146 / 130 40% 1 12.11.2026 Mehr Infos nötig
Bruno Larregui Juventud Aktiv 123 / 127 40% 2 08.11.2026 -
Tyrese Campbell Sheffield United Aktiv 114 / 124 40% 2 05.11.2026 -
Yousef Salech Cardiff City Aktiv 140 / 112 40% 1 05.11.2026 -
Jhon Jhon Zenit Aktiv 142 / 117 40% 1 02.11.2026 Mehr Infos nötig
Jáder Valencia Deportes Tolima Aktiv 118 / 119 40% 1 02.11.2026 -
Ilyas Ansah Hull City Aktiv 124 / 123 40% 1 02.11.2026 -
Wessam Abou Ali Columbus Crew Aktiv 122 / 129 40% 1 01.11.2026 -
Esteban da Silva Racing Aktiv 115 / 119 40% 1 30.10.2026 -
Erik Botheim Viking Aktiv 117 / 133 40% 1 30.10.2026 -
Santiago Toloza O'Higgins Aktiv 133 / 126 40% 1 29.10.2026 -
Luciano Cosentino Wanderers Aktiv 127 / 129 40% 2 25.10.2026 -
Dwight McNeil Crystal Palace Aktiv 138 / 145 40% 1 23.10.2026 -
Luis Caicedo Spartak 1918 Aktiv 101 / 89 40% 1 20.10.2026 -
Alejandro Pozo Standard Liege Aktiv 140 / 136 40% 1 20.10.2026 -
Emiliano Álvarez Progreso Aktiv 110 / 127 40% 1 20.10.2026 -
Jesus Ferreira Seattle Sounders Aktiv 124 / 122 40% 3 18.10.2026 -
Efraín Álvarez Aston Villa Aktiv 119 / 134 40% 1 18.10.2026 -
Sorba Thomas Stoke City Aktiv 133 / 127 40% 1 18.10.2026 -
Bénie Traoré New York City Aktiv 110 / 131 40% 2 16.10.2026 -
Oswin Appollis Orlando Pirates Aktiv 105 / 119 40% 2 16.10.2026 -
Adu Ares Eibar Aktiv 122 / 112 40% 1 16.10.2026 -
Richard Koné Queens Park Rangers Aktiv 134 / 132 40% 1 12.10.2026 -
Ali Ahmed Norwich City Aktiv 111 / 115 40% 1 11.10.2026 -
Kévin Denkey FC Cincinnati Aktiv 124 / 113 40% 1 11.10.2026 -
Aune Heggebø West Bromwich Albion Aktiv 135 / 130 40% 1 10.10.2026 -
Ramiro Ruiz Rodríguez Atlético Tucumán Aktiv 112 / 125 40% 2 08.10.2026 -
Carlos Álvarez Club America Aktiv 150 / 147 40% 1 06.10.2026 -
Omar Campos Cruz Azul Aktiv 128 / 131 40% 1 06.10.2026 -
Alexis Gutiérrez Club America Aktiv 131 / 126 40% 1 05.10.2026 -
Brian Rodríguez Club America Aktiv 113 / 137 40% 1 05.10.2026 -
Sergi Cardona KAA Gent Aktiv 135 / 135 40% 1 03.10.2026 -
Facundo Batista Penarol Aktiv 127 / 118 40% 2 02.10.2026 -
Tadeo Allende Inter Miami CF Aktiv 120 / 130 40% 1 02.10.2026 -
Joel Orlando Almagro Aktiv 106 / 114 40% 2 29.09.2026 -
Rômulo Tigres Aktiv 137 / 126 40% 1 28.09.2026 -
Ramiro Sordo Santos Laguna Aktiv 136 / 132 40% 1 27.09.2026 -
Aarón Molinas Defensa y Justicia Aktiv 124 / 130 40% 1 27.09.2026 -
Duncan McGuire Houston Dynamo Aktiv 111 / 137 40% 1 26.09.2026 -
Brandon Vázquez Austin FC Aktiv 134 / 128 40% 1 26.09.2026 -
Germán Berterame Inter Miami CF Aktiv 125 / 137 40% 1 25.09.2026 -
Cristian Barros Cerro Aktiv 99 / 96 40% 1 24.09.2026 -
Lucas Varaldo Morelia Aktiv 127 / 126 40% 2 21.09.2026 -
Alexander Aravena Portland Timbers Aktiv 132 / 125 40% 1 19.09.2026 -
Ezequiel Bullaude Santos Laguna Aktiv 131 / 114 40% 1 19.09.2026 -
Fidel Ambríz Monterrey Aktiv 130 / 145 40% 1 18.09.2026 -
José Alvarado Leon Aktiv 113 / 116 40% 3 15.09.2026 -
Sebastián Moreno Patriotas Aktiv 103 / 92 40% 1 14.09.2026 -
Justo Giani Umraniyespor Aktiv 129 / 136 40% 1 13.09.2026 -
Alejandro Piedrahita Deportivo Pereira Aktiv 127 / 123 40% 1 12.09.2026 -
Jaminton Campaz Rosario Central Aktiv 126 / 116 40% 1 12.09.2026 -
Adolfo Muñoz UTC Aktiv 118 / 104 40% 1 09.08.2026 -
Adrián Parra Deportes Tolima Aktiv 122 / 121 40% 1 07.08.2026 -
Aarón Mejía Tijuana Aktiv 115 / 120 40% 1 06.08.2026 -
Alan Cervantes Club America Aktiv 133 / 110 40% 1 04.08.2026 -
Joaquim Tigres Aktiv 145 / 136 40% 1 04.08.2026 -
Fernando Beltrán Leon Aktiv 124 / 109 40% 1 03.08.2026 -
Lucas Verza Olimpia Aktiv 99 / 120 40% 1 01.08.2026 -
Andrés Samurio Tacuarembo Aktiv 110 / 111 40% 1 01.08.2026 -